Time;durP1;ratioP1;P1;durP2;ratioP2;P2;SDS_P1;SDS_P2;PMS_P1;PMS_P2;Temp;Humidity;BMP_temperature;BMP_pressure;BME280_temperature;BME280_humidity;BME280_pressure;Samples;Min_cycle;Max_cycle;Signal;HPM_P1;HPM_P2
2023/10/10 00:01:14;;;;;;;5.03;3.57;;;18.60;99.90;;;;;;10541413;28;21234;-67
2023/10/10 00:06:16;;;;;;;5.30;3.43;;;18.70;99.90;;;;;;10526045;28;20532;-67
2023/10/10 00:11:18;;;;;;;4.38;3.40;;;18.60;99.90;;;;;;10536149;28;20696;-68
2023/10/10 00:16:33;;;;;;;4.88;3.67;;;18.60;99.90;;;;;;10545561;28;20397;-68
2023/10/10 00:21:34;;;;;;;4.25;3.20;;;18.60;99.90;;;;;;10528022;28;20950;-68
2023/10/10 00:26:35;;;;;;;4.55;3.50;;;18.60;99.90;;;;;;10528156;28;20901;-66
2023/10/10 00:31:56;;;;;;;4.10;3.55;;;18.60;99.90;;;;;;10525893;28;20400;-67
2023/10/10 00:37:02;;;;;;;4.10;3.05;;;18.60;99.90;;;;;;10530107;28;20402;-67
2023/10/10 00:42:05;;;;;;;4.63;3.40;;;18.60;99.90;;;;;;10530486;28;20496;-67
2023/10/10 00:47:12;;;;;;;4.70;3.38;;;18.60;99.90;;;;;;10526907;28;20405;-67
2023/10/10 00:52:16;;;;;;;3.88;3.42;;;18.60;99.90;;;;;;10542660;28;20465;-67
2023/10/10 00:57:19;;;;;;;5.28;3.40;;;18.60;99.90;;;;;;10533568;28;20434;-67
2023/10/10 01:02:20;;;;;;;3.95;3.22;;;18.60;99.90;;;;;;10533297;28;20522;-67
2023/10/10 01:07:23;;;;;;;4.75;3.22;;;18.60;99.90;;;;;;10531313;28;20393;-67
2023/10/10 01:12:35;;;;;;;5.00;3.27;;;18.60;99.90;;;;;;10528142;28;20837;-67
2023/10/10 01:17:37;;;;;;;4.82;3.30;;;18.60;99.90;;;;;;10528644;28;20413;-67
2023/10/10 01:22:40;;;;;;;4.27;3.30;;;18.60;99.90;;;;;;10526257;28;20986;-67
2023/10/10 01:27:43;;;;;;;4.07;3.40;;;18.60;99.90;;;;;;10533427;28;20428;-67
2023/10/10 01:32:50;;;;;;;4.90;3.30;;;18.60;99.90;;;;;;10526814;28;20398;-67
2023/10/10 01:37:54;;;;;;;3.53;3.10;;;18.60;99.90;;;;;;10521560;28;20405;-67
2023/10/10 01:42:59;;;;;;;4.00;3.15;;;18.60;99.90;;;;;;10522856;28;20938;-68
2023/10/10 01:48:08;;;;;;;5.37;3.30;;;18.60;99.90;;;;;;10534872;28;20453;-68
2023/10/10 01:53:10;;;;;;;4.17;3.13;;;18.60;99.90;;;;;;10531710;28;20905;-66
2023/10/10 01:58:12;;;;;;;4.33;3.20;;;18.60;99.90;;;;;;10519087;28;20461;-67
2023/10/10 02:03:13;;;;;;;3.97;3.05;;;18.60;99.90;;;;;;10533496;28;20443;-66
2023/10/10 02:08:17;;;;;;;4.32;3.33;;;18.50;99.90;;;;;;10535774;28;20495;-67
2023/10/10 02:13:18;;;;;;;4.47;3.20;;;18.60;99.90;;;;;;10527321;28;20462;-68
2023/10/10 02:18:38;;;;;;;4.55;3.30;;;18.50;99.80;;;;;;10523451;28;20531;-67
2023/10/10 02:23:44;;;;;;;4.82;3.33;;;18.50;99.80;;;;;;10518740;28;20539;-68
2023/10/10 02:33:50;;;;;;;4.45;3.22;;;18.50;99.80;;;;;;10527872;28;20762;-67
2023/10/10 02:38:56;;;;;;;4.22;3.53;;;18.50;99.80;;;;;;10541873;28;20936;-65
2023/10/10 02:49:29;;;;;;;4.18;3.30;;;18.50;99.80;;;;;;10534456;28;20561;-67
2023/10/10 02:54:34;;;;;;;4.83;3.80;;;18.50;99.80;;;;;;10553681;28;20406;-67
2023/10/10 02:59:43;;;;;;;4.87;3.60;;;18.50;99.80;;;;;;10541511;28;20420;-65
2023/10/10 03:10:22;;;;;;;5.55;4.05;;;18.50;99.90;;;;;;10529781;28;20407;-67
2023/10/10 03:25:28;;;;;;;5.10;3.87;;;18.50;99.90;;;;;;10533675;28;20822;-66
2023/10/10 03:30:50;;;;;;;5.07;3.93;;;18.50;99.90;;;;;;10532466;28;20506;-67
2023/10/10 03:36:05;;;;;;;5.43;4.28;;;18.50;99.80;;;;;;10543009;28;20401;-67
2023/10/10 05:27:16;;;;;;;6.03;5.40;;;18.30;99.80;;;;;;10524468;28;20400;-67
2023/10/10 05:32:18;;;;;;;6.35;5.35;;;18.30;99.80;;;;;;10530502;28;20768;-68
2023/10/10 05:37:19;;;;;;;8.93;6.03;;;18.30;99.80;;;;;;10529676;28;20405;-67
2023/10/10 05:42:20;;;;;;;7.20;5.60;;;18.30;99.80;;;;;;10513253;28;20408;-68
2023/10/10 05:47:24;;;;;;;8.07;5.83;;;18.30;99.80;;;;;;10539865;28;20500;-67
2023/10/10 05:52:24;;;;;;;8.17;5.90;;;18.30;99.80;;;;;;10525896;28;20798;-67
2023/10/10 05:57:25;;;;;;;7.27;5.67;;;18.30;99.80;;;;;;10515753;28;20404;-66
2023/10/10 06:02:28;;;;;;;7.72;5.60;;;18.30;99.80;;;;;;10505162;28;20925;-66
2023/10/10 06:07:30;;;;;;;10.63;7.90;;;18.30;99.80;;;;;;10491943;28;20745;-68
2023/10/10 06:12:32;;;;;;;10.33;7.80;;;18.20;99.90;;;;;;10504573;28;20425;-69
2023/10/10 06:17:33;;;;;;;14.90;7.43;;;18.20;99.90;;;;;;10523480;28;20881;-68
2023/10/10 06:22:34;;;;;;;9.73;6.95;;;18.20;99.90;;;;;;10525942;28;20499;-67
2023/10/10 06:27:40;;;;;;;10.47;7.03;;;18.20;99.90;;;;;;10520203;28;20487;-69
2023/10/10 06:32:43;;;;;;;10.93;7.10;;;18.20;99.90;;;;;;10532825;28;20405;-68
2023/10/10 06:37:44;;;;;;;10.88;8.02;;;18.20;99.90;;;;;;10536302;28;20471;-70
2023/10/10 06:42:47;;;;;;;13.03;7.60;;;18.20;99.90;;;;;;10533878;28;20415;-69
2023/10/10 06:47:50;;;;;;;10.73;7.13;;;18.20;99.90;;;;;;10537882;28;20399;-69
2023/10/10 06:52:52;;;;;;;11.02;7.15;;;18.20;99.90;;;;;;10541990;28;20442;-68
2023/10/10 06:57:59;;;;;;;11.27;7.50;;;18.20;99.90;;;;;;10541015;28;20404;-67
2023/10/10 07:03:00;;;;;;;13.45;7.93;;;18.20;99.90;;;;;;10527631;28;20413;-67
2023/10/10 07:08:49;;;;;;;11.10;7.70;;;18.20;99.90;;;;;;10528269;28;20405;-67
2023/10/10 07:13:29;;;;;;;9.95;7.63;;;18.20;99.90;;;;;;10516916;28;20410;-68
2023/10/10 07:18:31;;;;;;;11.57;8.27;;;18.30;99.90;;;;;;10534266;28;20406;-67
2023/10/10 07:24:02;;;;;;;12.43;7.50;;;18.30;99.90;;;;;;10529914;28;20460;-68
2023/10/10 07:29:26;;;;;;;12.13;8.20;;;18.30;99.90;;;;;;10526288;28;20416;-66
2023/10/10 07:34:34;;;;;;;12.15;8.50;;;18.30;99.90;;;;;;10523239;28;20496;-68
2023/10/10 07:39:36;;;;;;;15.50;9.27;;;18.30;99.90;;;;;;10522042;28;20453;-68
2023/10/10 07:44:37;;;;;;;15.33;9.90;;;18.30;99.90;;;;;;10531106;28;20401;-67
2023/10/10 07:49:40;;;;;;;16.47;10.00;;;18.30;99.90;;;;;;10540175;28;20896;-66
2023/10/10 07:54:44;;;;;;;17.20;9.83;;;18.30;99.90;;;;;;10541840;28;20917;-66
2023/10/10 07:59:46;;;;;;;17.15;10.73;;;18.40;99.80;;;;;;10520549;28;20418;-68
2023/10/10 08:04:49;;;;;;;18.80;10.90;;;18.40;99.80;;;;;;10538689;28;20427;-67
2023/10/10 08:15:19;;;;;;;23.13;13.25;;;18.40;99.80;;;;;;10479185;28;20396;-68
2023/10/10 08:25:43;;;;;;;24.53;13.60;;;18.40;99.90;;;;;;10533326;28;20398;-67
2023/10/10 08:30:43;;;;;;;24.50;13.63;;;18.50;99.90;;;;;;10519819;28;20403;-68
2023/10/10 08:35:44;;;;;;;23.73;14.23;;;18.50;99.80;;;;;;10529710;28;20909;-67
2023/10/10 08:40:57;;;;;;;24.80;14.40;;;18.50;99.80;;;;;;10518925;28;20482;-66
2023/10/10 08:46:04;;;;;;;24.67;13.87;;;18.60;99.80;;;;;;10514455;28;20396;-67
2023/10/10 08:51:04;;;;;;;25.88;14.48;;;18.60;99.70;;;;;;10520874;28;20420;-67
2023/10/10 08:56:06;;;;;;;25.63;14.30;;;18.70;99.70;;;;;;10526681;28;20406;-67
2023/10/10 09:01:08;;;;;;;27.50;14.60;;;18.70;99.70;;;;;;10510385;28;20420;-68
2023/10/10 09:06:19;;;;;;;27.77;15.30;;;18.70;99.70;;;;;;10526627;28;20685;-68
2023/10/10 09:11:20;;;;;;;27.43;15.67;;;18.70;99.70;;;;;;10525325;28;20977;-66
2023/10/10 09:16:41;;;;;;;27.50;15.57;;;18.80;99.70;;;;;;10507596;28;20395;-67
2023/10/10 09:21:55;;;;;;;30.27;16.40;;;18.80;99.60;;;;;;10502858;28;20783;-67
2023/10/10 09:26:57;;;;;;;25.88;14.98;;;18.80;99.60;;;;;;10516983;28;20402;-68
2023/10/10 09:31:59;;;;;;;27.05;15.82;;;18.90;99.60;;;;;;10513440;28;20424;-68
2023/10/10 09:37:05;;;;;;;30.23;16.80;;;18.90;99.60;;;;;;10505851;28;20407;-68
2023/10/10 09:52:58;;;;;;;28.05;15.38;;;19.00;99.50;;;;;;10537833;28;20416;-68
2023/10/10 09:58:15;;;;;;;26.63;16.10;;;19.10;99.50;;;;;;10531930;28;20396;-68
2023/10/10 10:04:04;;;;;;;27.20;15.30;;;19.10;99.50;;;;;;10511257;28;20520;-66
2023/10/10 10:09:01;;;;;;;25.55;14.75;;;19.10;99.50;;;;;;10514959;28;20398;-68
2023/10/10 10:14:28;;;;;;;29.00;16.50;;;19.20;99.40;;;;;;10525737;28;20415;-65
2023/10/10 10:19:33;;;;;;;27.17;15.80;;;19.20;99.50;;;;;;10521384;28;20849;-68
2023/10/10 10:24:46;;;;;;;25.48;15.23;;;19.30;99.50;;;;;;10507480;28;20419;-68
2023/10/10 10:29:54;;;;;;;25.45;15.50;;;19.30;99.40;;;;;;10506398;28;20410;-67
2023/10/10 10:34:57;;;;;;;25.73;15.87;;;19.40;99.40;;;;;;10527490;28;20812;-66
2023/10/10 10:45:38;;;;;;;26.25;15.00;;;19.50;99.30;;;;;;10531405;28;20402;-68
2023/10/10 10:50:40;;;;;;;25.58;14.90;;;19.50;99.30;;;;;;10531353;28;20467;-68
2023/10/10 10:55:52;;;;;;;24.80;14.73;;;19.50;99.30;;;;;;10531125;28;20485;-68
2023/10/10 11:01:00;;;;;;;26.35;14.45;;;19.60;99.30;;;;;;10529307;28;20404;-68
2023/10/10 11:06:06;;;;;;;24.38;13.93;;;19.60;99.30;;;;;;10525465;28;20407;-68
2023/10/10 11:16:44;;;;;;;22.40;12.82;;;19.70;99.10;;;;;;10533552;28;20893;-66
2023/10/10 11:21:53;;;;;;;23.83;13.48;;;19.80;99.10;;;;;;10508277;28;20497;-68
2023/10/10 11:32:11;;;;;;;22.93;12.70;;;19.80;99.00;;;;;;10540572;28;20424;-68
2023/10/10 11:37:17;;;;;;;19.67;11.60;;;19.90;98.90;;;;;;10536793;28;20414;-68
2023/10/10 11:42:30;;;;;;;18.33;11.73;;;19.90;98.80;;;;;;10521992;28;20822;-68
2023/10/10 11:47:31;;;;;;;18.53;11.53;;;20.00;98.70;;;;;;10516392;28;20415;-67
2023/10/10 11:52:32;;;;;;;17.50;11.33;;;20.00;98.70;;;;;;10535945;28;20787;-66
2023/10/10 11:57:34;;;;;;;17.90;11.45;;;20.10;98.60;;;;;;10531258;28;20401;-68
2023/10/10 12:02:40;;;;;;;19.20;11.53;;;20.10;98.50;;;;;;10528298;28;20417;-70
2023/10/10 12:07:40;;;;;;;17.40;11.35;;;20.10;98.50;;;;;;10525426;28;20939;-69
2023/10/10 12:12:45;;;;;;;17.90;11.53;;;20.10;98.50;;;;;;10528219;28;20413;-68
2023/10/10 12:17:47;;;;;;;17.95;10.80;;;20.20;98.40;;;;;;10507209;28;20401;-68
2023/10/10 12:22:48;;;;;;;18.25;11.05;;;20.20;98.30;;;;;;10530669;28;20827;-67
2023/10/10 12:27:49;;;;;;;16.70;11.00;;;20.20;98.30;;;;;;10528216;28;20497;-69
2023/10/10 12:32:49;;;;;;;16.40;10.83;;;20.30;98.40;;;;;;10518818;28;20831;-68
2023/10/10 12:37:57;;;;;;;19.27;11.10;;;20.30;98.30;;;;;;10532344;28;20848;-68
2023/10/10 12:42:59;;;;;;;18.08;10.80;;;20.30;98.30;;;;;;10519795;28;21090;-68
2023/10/10 12:48:02;;;;;;;16.45;10.50;;;20.30;98.40;;;;;;10509937;28;20771;-67
2023/10/10 12:53:07;;;;;;;15.93;10.83;;;20.30;98.40;;;;;;10540229;28;20730;-69
2023/10/10 12:58:15;;;;;;;18.88;10.70;;;20.30;98.40;;;;;;10531825;28;20412;-68
2023/10/10 13:03:20;;;;;;;16.45;10.43;;;20.30;98.40;;;;;;10530740;28;20415;-67
2023/10/10 13:08:24;;;;;;;18.15;10.52;;;20.40;98.30;;;;;;10525618;28;20404;-68
2023/10/10 13:13:27;;;;;;;17.40;10.85;;;20.40;98.30;;;;;;10526090;28;20898;-68
2023/10/10 13:18:27;;;;;;;17.08;10.70;;;20.40;98.40;;;;;;10526514;28;20394;-66
2023/10/10 13:23:29;;;;;;;14.52;10.10;;;20.40;98.30;;;;;;10512744;28;20828;-68
2023/10/10 13:28:29;;;;;;;15.10;9.93;;;20.40;98.40;;;;;;10525405;28;20399;-68
2023/10/10 13:33:30;;;;;;;15.75;10.05;;;20.40;98.40;;;;;;10516252;28;20405;-67
2023/10/10 13:38:30;;;;;;;14.88;10.20;;;20.40;98.70;;;;;;10507172;28;20475;-67
2023/10/10 13:43:31;;;;;;;15.48;10.18;;;20.40;98.50;;;;;;10535838;28;20450;-67
2023/10/10 13:48:36;;;;;;;15.52;9.80;;;20.40;98.50;;;;;;10509949;28;20398;-68
2023/10/10 13:53:39;;;;;;;14.20;9.15;;;20.40;98.60;;;;;;10521066;28;20503;-68
2023/10/10 13:58:51;;;;;;;15.57;10.43;;;20.30;98.60;;;;;;10524185;28;20411;-68
2023/10/10 14:04:00;;;;;;;17.05;10.20;;;20.40;98.50;;;;;;10517924;28;20425;-66
2023/10/10 14:09:03;;;;;;;14.05;9.38;;;20.40;98.50;;;;;;10522660;28;20931;-66
2023/10/10 14:14:06;;;;;;;13.48;9.60;;;20.40;98.50;;;;;;10502700;28;20403;-67
2023/10/10 14:19:06;;;;;;;14.77;9.27;;;20.40;98.50;;;;;;10532799;28;20402;-68
2023/10/10 14:24:08;;;;;;;13.38;9.50;;;20.40;98.50;;;;;;10521970;28;20414;-68
2023/10/10 14:29:12;;;;;;;17.00;10.20;;;20.40;98.50;;;;;;10511209;28;20995;-71
2023/10/10 14:34:24;;;;;;;15.13;9.57;;;20.40;98.60;;;;;;10528282;28;20865;-68
2023/10/10 14:39:44;;;;;;;15.63;9.63;;;20.60;98.60;;;;;;10513795;28;20498;-69
2023/10/10 14:44:44;;;;;;;14.40;9.53;;;20.50;98.60;;;;;;10532506;28;20409;-68
2023/10/10 14:49:45;;;;;;;15.50;9.23;;;20.50;98.80;;;;;;10530058;28;20400;-69
2023/10/10 14:54:48;;;;;;;13.23;9.07;;;20.50;98.70;;;;;;10540998;28;20483;-67
2023/10/10 14:59:50;;;;;;;14.50;9.32;;;20.50;98.70;;;;;;10541842;28;20408;-68
2023/10/10 15:04:50;;;;;;;13.93;8.77;;;20.50;98.70;;;;;;10517624;28;20813;-66
2023/10/10 15:09:51;;;;;;;15.13;9.35;;;20.50;98.50;;;;;;10521840;28;20464;-68
2023/10/10 15:14:57;;;;;;;14.73;9.50;;;20.40;98.50;;;;;;10530896;28;20825;-69
2023/10/10 15:19:58;;;;;;;13.97;8.97;;;20.40;98.80;;;;;;10507898;28;20447;-71
2023/10/10 15:25:01;;;;;;;22.58;12.63;;;20.50;98.80;;;;;;10526143;28;20598;-69
2023/10/10 15:30:08;;;;;;;22.17;12.50;;;20.50;99.10;;;;;;10524788;28;20431;-70
2023/10/10 15:35:10;;;;;;;20.33;12.40;;;20.60;98.90;;;;;;10519027;28;20963;-71
2023/10/10 15:40:20;;;;;;;21.45;12.27;;;20.60;98.80;;;;;;10530080;28;20453;-71
2023/10/10 15:45:21;;;;;;;18.63;10.98;;;20.60;98.70;;;;;;10533018;28;20827;-71
2023/10/10 15:50:22;;;;;;;19.53;11.40;;;20.60;98.50;;;;;;10535597;28;20484;-70
2023/10/10 15:55:25;;;;;;;20.03;12.20;;;20.60;98.50;;;;;;10541067;28;20470;-75
2023/10/10 16:00:32;;;;;;;20.75;12.27;;;20.60;98.70;;;;;;10530663;28;20857;-70
2023/10/10 16:05:39;;;;;;;23.75;12.43;;;20.60;98.50;;;;;;10525096;28;20485;-70
2023/10/10 16:10:40;;;;;;;22.00;11.83;;;20.50;98.40;;;;;;10529542;28;20413;-72
2023/10/10 16:15:41;;;;;;;19.03;11.50;;;20.50;98.30;;;;;;10512486;28;20400;-72
2023/10/10 16:20:41;;;;;;;19.52;11.85;;;20.40;98.20;;;;;;10534987;28;20410;-72
2023/10/10 16:25:42;;;;;;;19.45;11.30;;;20.40;98.20;;;;;;10510587;28;20404;-71
2023/10/10 16:30:43;;;;;;;20.48;11.38;;;20.30;98.10;;;;;;10524027;28;20703;-70
2023/10/10 16:35:46;;;;;;;22.10;11.55;;;20.20;98.20;;;;;;10525614;28;20407;-70
2023/10/10 16:40:49;;;;;;;18.83;11.43;;;20.20;98.40;;;;;;10532951;28;20414;-70
2023/10/10 16:45:50;;;;;;;19.25;10.85;;;20.10;98.60;;;;;;10528330;28;20400;-70
2023/10/10 16:50:51;;;;;;;19.17;11.90;;;20.10;98.70;;;;;;10539789;28;20464;-70
2023/10/10 16:55:53;;;;;;;18.17;11.33;;;20.00;98.70;;;;;;10514250;28;20489;-70
2023/10/10 17:01:00;;;;;;;18.42;11.02;;;20.00;98.80;;;;;;10513609;28;20417;-71
2023/10/10 17:06:01;;;;;;;19.85;11.85;;;19.90;98.90;;;;;;10525797;28;20402;-72
2023/10/10 17:11:11;;;;;;;21.02;11.55;;;19.90;99.00;;;;;;10528918;28;20431;-69
2023/10/10 17:16:17;;;;;;;19.15;11.40;;;19.80;99.00;;;;;;10520455;28;20412;-70
2023/10/10 17:21:18;;;;;;;18.13;11.00;;;19.90;99.10;;;;;;10527617;28;20406;-67
2023/10/10 17:26:23;;;;;;;18.08;10.60;;;19.80;99.10;;;;;;10528035;28;20398;-67
2023/10/10 17:31:24;;;;;;;17.33;10.80;;;19.80;99.10;;;;;;10518690;28;20407;-66
2023/10/10 17:36:28;;;;;;;17.37;10.53;;;19.90;99.10;;;;;;10522390;28;20399;-67
2023/10/10 17:41:29;;;;;;;16.02;10.43;;;19.90;99.00;;;;;;10519944;28;20837;-66
2023/10/10 17:46:31;;;;;;;17.13;10.30;;;19.90;98.80;;;;;;10526704;28;20415;-67
2023/10/10 17:51:33;;;;;;;15.10;9.40;;;19.90;98.90;;;;;;10532970;28;20723;-66
2023/10/10 17:56:34;;;;;;;13.68;8.88;;;20.00;98.90;;;;;;10526127;28;20829;-67
2023/10/10 18:01:34;;;;;;;14.23;9.77;;;20.00;98.90;;;;;;10524396;28;20408;-67
2023/10/10 18:06:36;;;;;;;13.85;9.43;;;20.00;98.80;;;;;;10492706;28;20413;-65
2023/10/10 18:11:37;;;;;;;13.77;9.57;;;19.90;98.80;;;;;;10519596;28;20417;-64
2023/10/10 18:16:38;;;;;;;12.60;8.10;;;19.90;98.80;;;;;;10505258;28;20916;-67
2023/10/10 18:21:40;;;;;;;11.48;8.07;;;19.90;98.80;;;;;;10511609;28;20482;-66
2023/10/10 18:26:40;;;;;;;13.67;8.20;;;19.90;98.90;;;;;;10510800;28;20399;-67
2023/10/10 18:31:43;;;;;;;15.07;9.47;;;19.90;98.90;;;;;;10499280;28;20428;-67
2023/10/10 18:36:44;;;;;;;13.85;9.18;;;19.90;98.90;;;;;;10521483;28;20409;-65
2023/10/10 18:41:46;;;;;;;14.00;8.85;;;19.90;98.90;;;;;;10529782;28;20471;-66
2023/10/10 18:46:46;;;;;;;10.93;7.63;;;20.00;98.90;;;;;;10527968;28;21010;-65
2023/10/10 18:51:47;;;;;;;13.47;8.53;;;19.80;98.90;;;;;;10526679;28;20468;-65
2023/10/10 18:56:49;;;;;;;12.93;8.10;;;19.90;98.90;;;;;;10524125;28;20415;-67
2023/10/10 19:01:50;;;;;;;12.50;8.32;;;19.80;98.90;;;;;;10532024;28;20409;-67
2023/10/10 19:06:51;;;;;;;12.70;8.77;;;19.80;98.90;;;;;;10535066;28;20774;-66
2023/10/10 19:11:57;;;;;;;11.77;8.03;;;19.80;99.00;;;;;;10517607;28;20415;-67
2023/10/10 19:16:57;;;;;;;11.73;7.35;;;19.80;99.00;;;;;;10528385;28;20407;-67
2023/10/10 19:22:04;;;;;;;12.57;7.77;;;19.80;98.90;;;;;;10523415;28;20487;-67
2023/10/10 19:27:10;;;;;;;11.65;8.32;;;19.70;99.10;;;;;;10533806;28;21131;-67
2023/10/10 19:32:13;;;;;;;12.43;8.83;;;19.80;99.00;;;;;;10523996;28;20441;-67
2023/10/10 19:37:14;;;;;;;10.43;7.50;;;19.70;98.90;;;;;;10520562;28;20459;-68
2023/10/10 19:42:17;;;;;;;12.00;8.10;;;19.70;98.90;;;;;;10515483;28;20481;-67
2023/10/10 19:47:19;;;;;;;10.60;8.07;;;19.70;98.90;;;;;;10507044;28;21155;-67
2023/10/10 19:52:20;;;;;;;12.82;8.70;;;19.70;98.90;;;;;;10522260;28;20915;-67
2023/10/10 19:57:20;;;;;;;10.88;7.70;;;19.60;98.90;;;;;;10509625;28;20435;-67
2023/10/10 20:02:21;;;;;;;10.82;7.57;;;19.60;98.90;;;;;;10527971;28;20840;-66
2023/10/10 20:07:22;;;;;;;9.83;7.30;;;19.60;98.80;;;;;;10526347;28;20464;-65
2023/10/10 20:12:22;;;;;;;10.73;8.00;;;19.60;98.80;;;;;;10521449;28;20394;-64
2023/10/10 20:17:23;;;;;;;11.63;7.83;;;19.60;98.80;;;;;;10506002;28;21096;-67
2023/10/10 20:22:24;;;;;;;11.83;7.90;;;19.50;98.70;;;;;;10516280;28;20443;-66
2023/10/10 20:27:30;;;;;;;11.40;8.07;;;19.50;98.70;;;;;;10528897;28;20402;-66
2023/10/10 20:32:33;;;;;;;12.80;8.80;;;19.50;98.70;;;;;;10506629;28;20923;-67
2023/10/10 20:37:33;;;;;;;11.48;8.23;;;19.50;98.70;;;;;;10511790;28;20445;-66
2023/10/10 20:42:35;;;;;;;11.75;8.45;;;19.50;98.60;;;;;;10517215;28;20512;-66
2023/10/10 20:47:36;;;;;;;11.15;7.40;;;19.50;98.60;;;;;;10521485;28;20848;-67
2023/10/10 20:52:37;;;;;;;11.90;8.35;;;19.50;98.50;;;;;;10525767;28;20423;-64
2023/10/10 20:57:39;;;;;;;12.82;8.60;;;19.50;98.50;;;;;;10523305;28;20466;-67
2023/10/10 21:02:42;;;;;;;11.73;8.55;;;19.40;98.40;;;;;;10520783;28;20406;-66
2023/10/10 21:07:45;;;;;;;11.20;8.25;;;19.40;98.40;;;;;;10529298;28;20401;-66
2023/10/10 21:12:47;;;;;;;11.85;8.25;;;19.40;98.40;;;;;;10531974;28;20828;-66
2023/10/10 21:17:50;;;;;;;13.20;8.10;;;19.50;98.30;;;;;;10519094;28;20820;-66
2023/10/10 21:22:52;;;;;;;12.60;9.05;;;19.40;98.30;;;;;;10516559;28;20417;-66
2023/10/10 21:27:57;;;;;;;11.98;8.15;;;19.50;98.20;;;;;;10520264;28;20400;-66
2023/10/10 21:32:58;;;;;;;12.43;8.70;;;19.40;98.00;;;;;;10512361;28;20489;-66
2023/10/10 21:37:59;;;;;;;12.15;8.63;;;19.40;98.10;;;;;;10522018;28;20407;-66
2023/10/10 21:42:59;;;;;;;9.97;7.63;;;19.40;98.00;;;;;;10506027;28;20421;-65
2023/10/10 21:48:03;;;;;;;10.83;7.23;;;19.40;98.20;;;;;;10522609;28;20418;-66
2023/10/10 21:53:03;;;;;;;11.33;7.70;;;19.30;97.90;;;;;;10520021;28;20410;-66
2023/10/10 21:58:05;;;;;;;11.45;7.47;;;19.30;97.90;;;;;;10519798;28;20405;-66
2023/10/10 22:03:05;;;;;;;9.20;6.38;;;19.30;97.80;;;;;;10531628;28;20411;-67
2023/10/10 22:08:06;;;;;;;10.13;7.57;;;19.30;97.80;;;;;;10518685;28;20396;-66
2023/10/10 22:13:11;;;;;;;12.60;7.83;;;19.30;97.80;;;;;;10531498;28;20739;-67
2023/10/10 22:18:11;;;;;;;11.07;7.17;;;19.30;97.70;;;;;;10520569;28;20420;-66
2023/10/10 22:23:12;;;;;;;10.17;7.30;;;19.30;97.70;;;;;;10525444;28;20408;-67
2023/10/10 22:28:12;;;;;;;12.20;7.43;;;19.30;97.70;;;;;;10530110;28;20436;-66
2023/10/10 22:33:13;;;;;;;10.80;7.80;;;19.30;97.70;;;;;;10526830;28;20406;-66
2023/10/10 22:38:13;;;;;;;10.20;7.20;;;19.30;97.70;;;;;;10523640;28;20416;-67
2023/10/10 22:43:15;;;;;;;10.03;6.90;;;19.30;97.70;;;;;;10525131;28;20459;-66
2023/10/10 22:48:15;;;;;;;10.32;6.93;;;19.20;97.70;;;;;;10524645;28;20505;-66
2023/10/10 22:53:16;;;;;;;10.40;7.10;;;19.20;97.70;;;;;;10532576;28;20407;-65
2023/10/10 22:58:20;;;;;;;9.73;6.63;;;19.20;97.70;;;;;;10519078;28;20470;-66
2023/10/10 23:03:22;;;;;;;10.03;6.43;;;19.20;97.70;;;;;;10525972;28;20413;-66
2023/10/10 23:08:23;;;;;;;8.80;6.65;;;19.20;97.60;;;;;;10528756;28;20415;-66
2023/10/10 23:13:24;;;;;;;10.48;6.97;;;19.20;97.60;;;;;;10519740;28;20410;-66
2023/10/10 23:18:24;;;;;;;9.73;6.80;;;19.20;97.60;;;;;;10525270;28;20556;-65
2023/10/10 23:23:26;;;;;;;10.40;6.80;;;19.20;97.60;;;;;;10535922;28;20486;-67
2023/10/10 23:28:27;;;;;;;9.37;6.50;;;19.20;97.60;;;;;;10536183;28;20407;-66
2023/10/10 23:33:28;;;;;;;9.37;6.53;;;19.20;97.60;;;;;;10527763;28;20394;-66
2023/10/10 23:38:28;;;;;;;8.93;6.60;;;19.10;97.50;;;;;;10544206;28;20478;-66
2023/10/10 23:43:29;;;;;;;9.38;6.60;;;19.10;97.50;;;;;;10540489;28;20503;-66
2023/10/10 23:48:30;;;;;;;9.20;6.20;;;19.10;97.60;;;;;;10527764;28;20555;-66
2023/10/10 23:53:30;;;;;;;9.03;6.40;;;19.10;97.60;;;;;;10525688;28;20427;-67
2023/10/10 23:58:35;;;;;;;10.40;6.47;;;19.10;97.60;;;;;;10542908;28;20456;-67
